Time;durP1;ratioP1;P1;durP2;ratioP2;P2;SDS_P1;SDS_P2;PMS_P1;PMS_P2;Temp;Humidity;BMP_temperature;BMP_pressure;BME280_temperature;BME280_humidity;BME280_pressure;Samples;Min_cycle;Max_cycle;Signal;HPM_P1;HPM_P2
2023/01/24 00:00:56;;;;;;;23.55;12.45;;;;;;;;;;5035766;28;20038;-67
2023/01/24 00:03:22;;;;;;;21.73;11.25;;;;;;;;;;5035227;28;20046;-69
2023/01/24 00:05:48;;;;;;;20.40;12.10;;;;;;;;;;5035560;28;20037;-69
2023/01/24 00:08:18;;;;;;;20.63;12.23;;;;;;;;;;5035619;28;20409;-69
2023/01/24 00:10:43;;;;;;;25.10;12.68;;;;;;;;;;5035416;28;20025;-68
2023/01/24 00:13:13;;;;;;;21.80;12.90;;;;;;;;;;5035366;28;20029;-69
2023/01/24 00:15:39;;;;;;;20.10;12.13;;;;;;;;;;5035388;28;20021;-68
2023/01/24 00:18:04;;;;;;;21.40;11.98;;;;;;;;;;5035461;28;20493;-69
2023/01/24 00:20:30;;;;;;;17.90;10.77;;;;;;;;;;5035434;28;20155;-69
2023/01/24 00:22:56;;;;;;;20.02;11.32;;;;;;;;;;5017683;28;20021;-69
2023/01/24 00:25:21;;;;;;;19.13;10.77;;;;;;;;;;5034964;28;20493;-68
2023/01/24 00:27:47;;;;;;;15.60;10.20;;;;;;;;;;5035145;28;20037;-67
2023/01/24 00:30:12;;;;;;;15.95;9.90;;;;;;;;;;5035189;28;20033;-68
2023/01/24 00:32:38;;;;;;;19.85;10.93;;;;;;;;;;5035073;28;20096;-68
2023/01/24 00:35:04;;;;;;;16.38;9.70;;;;;;;;;;5035090;28;20017;-69
2023/01/24 00:37:29;;;;;;;18.85;10.40;;;;;;;;;;5033745;28;20142;-67
2023/01/24 00:39:55;;;;;;;19.33;10.85;;;;;;;;;;5034755;28;20539;-70
2023/01/24 00:42:20;;;;;;;18.58;10.52;;;;;;;;;;5033761;28;20030;-68
2023/01/24 00:44:46;;;;;;;22.90;11.10;;;;;;;;;;5034991;28;20017;-67
2023/01/24 00:47:11;;;;;;;24.13;10.90;;;;;;;;;;5034640;28;20091;-67
2023/01/24 00:49:37;;;;;;;25.10;11.63;;;;;;;;;;5034721;28;20473;-68
2023/01/24 00:52:02;;;;;;;27.52;10.27;;;;;;;;;;5034827;28;20033;-67
2023/01/24 00:54:28;;;;;;;30.48;10.82;;;;;;;;;;5034591;28;20056;-70
2023/01/24 00:56:53;;;;;;;42.55;13.55;;;;;;;;;;5034487;28;20327;-69
2023/01/24 00:59:19;;;;;;;47.47;14.63;;;;;;;;;;5034699;28;20431;-70
2023/01/24 01:01:44;;;;;;;56.08;15.25;;;;;;;;;;5034358;28;20025;-70
2023/01/24 01:04:10;;;;;;;58.88;15.43;;;;;;;;;;5033961;28;20053;-69
2023/01/24 01:06:36;;;;;;;63.13;16.08;;;;;;;;;;5034294;28;20022;-70
2023/01/24 01:09:01;;;;;;;68.78;17.05;;;;;;;;;;5033668;28;20029;-69
2023/01/24 01:11:27;;;;;;;60.33;15.70;;;;;;;;;;5030568;28;20053;-69
2023/01/24 01:13:56;;;;;;;61.70;15.10;;;;;;;;;;5022901;28;20041;-70
2023/01/24 01:16:23;;;;;;;74.67;16.97;;;;;;;;;;5024124;28;20152;-70
2023/01/24 01:18:50;;;;;;;68.35;16.45;;;;;;;;;;5024637;28;20032;-70
2023/01/24 01:21:18;;;;;;;87.47;19.02;;;;;;;;;;5023919;28;20022;-70
2023/01/24 01:23:44;;;;;;;71.60;18.30;;;;;;;;;;5022302;28;20022;-69
2023/01/24 01:26:15;;;;;;;73.22;17.25;;;;;;;;;;5022196;28;20144;-70
2023/01/24 01:28:41;;;;;;;76.03;18.63;;;;;;;;;;5021189;28;20490;-70
2023/01/24 01:31:06;;;;;;;82.80;17.75;;;;;;;;;;5023707;28;20115;-70
2023/01/24 01:33:32;;;;;;;89.10;19.35;;;;;;;;;;5021714;28;20469;-71
2023/01/24 01:35:57;;;;;;;80.90;17.92;;;;;;;;;;5023006;28;20484;-70
2023/01/24 01:38:24;;;;;;;68.75;17.45;;;;;;;;;;5022859;28;20033;-70
2023/01/24 01:40:50;;;;;;;80.03;19.02;;;;;;;;;;5021568;28;20018;-70
2023/01/24 01:43:21;;;;;;;62.75;17.77;;;;;;;;;;5023080;28;20105;-70
2023/01/24 01:45:48;;;;;;;86.40;19.45;;;;;;;;;;5023331;28;20153;-71
2023/01/24 01:48:29;;;;;;;73.80;17.88;;;;;;;;;;5021230;28;20032;-70
2023/01/24 01:50:57;;;;;;;68.55;17.15;;;;;;;;;;5021935;28;20022;-70
2023/01/24 01:53:26;;;;;;;67.78;17.30;;;;;;;;;;5021728;28;20025;-70
2023/01/24 01:56:03;;;;;;;52.45;15.15;;;;;;;;;;5023401;28;20493;-70
2023/01/24 01:58:29;;;;;;;59.38;14.27;;;;;;;;;;5023385;28;20108;-71
2023/01/24 02:00:55;;;;;;;57.17;15.45;;;;;;;;;;5021588;28;20156;-70
2023/01/24 02:03:39;;;;;;;58.70;16.73;;;;;;;;;;5025364;28;20124;-69
2023/01/24 02:06:19;;;;;;;53.85;14.63;;;;;;;;;;5021870;28;20025;-69
2023/01/24 02:08:46;;;;;;;;;;;;;;;;;;5022526;28;20025;-69
2023/01/24 02:16:02;;;;;;;53.13;15.40;;;;;;;;;;5021032;28;20088;-70
2023/01/24 02:16:44;;;;;;;56.95;15.65;;;;;;;;;;5021829;28;20026;-69
2023/01/24 02:19:23;;;;;;;55.28;14.82;;;;;;;;;;5014783;28;20048;-69
2023/01/24 02:21:55;;;;;;;50.55;15.85;;;;;;;;;;4994469;28;20041;-70
2023/01/24 02:24:33;;;;;;;63.78;16.45;;;;;;;;;;5012088;28;20018;-68
2023/01/24 02:26:58;;;;;;;56.35;15.68;;;;;;;;;;5012059;28;20061;-70
2023/01/24 02:29:24;;;;;;;59.88;17.52;;;;;;;;;;5012139;28;20037;-69
2023/01/24 02:31:58;;;;;;;65.45;15.80;;;;;;;;;;5012010;28;20061;-68
2023/01/24 02:34:24;;;;;;;67.47;16.92;;;;;;;;;;5011902;28;20386;-70
2023/01/24 02:36:59;;;;;;;70.05;17.05;;;;;;;;;;4994279;28;20394;-71
2023/01/24 02:39:45;;;;;;;43.60;15.55;;;;;;;;;;5011972;28;20026;-71
2023/01/24 02:42:14;;;;;;;54.30;15.32;;;;;;;;;;5011972;28;20049;-71
2023/01/24 02:44:53;;;;;;;47.97;14.25;;;;;;;;;;5011684;28;20479;-70
2023/01/24 02:47:19;;;;;;;41.95;13.73;;;;;;;;;;5011792;28;20033;-70
2023/01/24 02:49:44;;;;;;;31.48;11.27;;;;;;;;;;5011567;28;20029;-71
2023/01/24 02:54:54;;;;;;;18.25;9.05;;;;;;;;;;5011385;28;20049;-70
2023/01/24 03:00:06;;;;;;;22.23;10.82;;;;;;;;;;5012255;28;20088;-71
2023/01/24 03:02:31;;;;;;;18.50;9.15;;;;;;;;;;5011872;28;20068;-71
2023/01/24 03:04:57;;;;;;;16.52;9.10;;;;;;;;;;4988124;28;1558084;-70
2023/01/24 03:07:22;;;;;;;16.33;9.32;;;;;;;;;;5052365;28;20041;-71
2023/01/24 03:09:48;;;;;;;20.67;10.27;;;;;;;;;;5052338;28;20515;-71
2023/01/24 03:36:53;;;;;;;21.48;10.65;;;;;;;;;;5056204;28;20079;-70
2023/01/24 03:42:02;;;;;;;27.73;11.70;;;;;;;;;;5056414;28;20385;-71
2023/01/24 03:44:28;;;;;;;45.90;15.70;;;;;;;;;;5055945;28;20028;-71
2023/01/24 03:46:53;;;;;;;65.07;17.83;;;;;;;;;;5055918;28;20032;-71
2023/01/24 03:49:19;;;;;;;63.85;18.33;;;;;;;;;;5055886;28;20028;-70
2023/01/24 03:54:28;;;;;;;76.50;19.27;;;;;;;;;;5056010;28;20032;-69
2023/01/24 03:56:54;;;;;;;90.88;22.27;;;;;;;;;;5037877;28;20033;-68
2023/01/24 03:59:19;;;;;;;96.22;23.20;;;;;;;;;;5055783;28;20024;-69
2023/01/24 04:01:45;;;;;;;87.38;22.17;;;;;;;;;;5055420;28;20071;-69
2023/01/24 04:04:11;;;;;;;89.05;21.83;;;;;;;;;;5051362;28;20128;-69
2023/01/24 04:06:37;;;;;;;78.63;21.17;;;;;;;;;;5035293;28;20049;-69
2023/01/24 04:09:02;;;;;;;75.30;21.23;;;;;;;;;;5035680;28;20456;-71
2023/01/24 04:11:28;;;;;;;79.20;19.40;;;;;;;;;;5035456;28;20432;-69
2023/01/24 04:13:53;;;;;;;61.47;18.25;;;;;;;;;;5035463;28;20178;-69
2023/01/24 04:16:19;;;;;;;57.15;17.60;;;;;;;;;;5035280;28;20497;-69
2023/01/24 04:18:44;;;;;;;39.25;14.77;;;;;;;;;;5035390;28;20116;-70
2023/01/24 04:21:09;;;;;;;34.03;14.00;;;;;;;;;;5035226;28;20018;-71
2023/01/24 04:23:37;;;;;;;33.55;12.93;;;;;;;;;;5035185;28;20029;-70
2023/01/24 04:26:03;;;;;;;30.15;13.55;;;;;;;;;;5035183;28;20040;-71
2023/01/24 04:28:30;;;;;;;30.70;14.02;;;;;;;;;;5033973;28;20108;-70
2023/01/24 04:31:00;;;;;;;36.88;14.32;;;;;;;;;;5035175;28;20098;-70
2023/01/24 04:33:26;;;;;;;35.08;14.30;;;;;;;;;;5035092;28;20034;-70
2023/01/24 04:35:56;;;;;;;26.83;12.93;;;;;;;;;;5034628;28;20033;-70
2023/01/24 04:38:21;;;;;;;28.73;13.43;;;;;;;;;;5017368;28;20397;-70
2023/01/24 04:40:47;;;;;;;27.15;12.80;;;;;;;;;;5035045;28;20035;-69
2023/01/24 04:43:12;;;;;;;29.50;13.13;;;;;;;;;;5034892;28;20029;-69
2023/01/24 04:45:38;;;;;;;26.23;12.27;;;;;;;;;;5034590;28;20025;-69
2023/01/24 04:48:03;;;;;;;32.45;13.07;;;;;;;;;;5035009;28;20036;-69
2023/01/24 04:50:29;;;;;;;28.55;13.55;;;;;;;;;;5034770;28;20033;-68
2023/01/24 04:52:54;;;;;;;26.50;13.32;;;;;;;;;;5034795;28;20021;-69
2023/01/24 04:55:19;;;;;;;28.48;12.55;;;;;;;;;;5034726;28;20025;-71
2023/01/24 04:57:45;;;;;;;24.73;12.20;;;;;;;;;;5034566;28;20385;-69
2023/01/24 05:00:11;;;;;;;23.20;10.93;;;;;;;;;;5034428;28;20056;-69
2023/01/24 05:02:37;;;;;;;21.05;11.55;;;;;;;;;;5034532;28;20393;-69
2023/01/24 05:05:04;;;;;;;23.35;12.25;;;;;;;;;;5034307;28;20041;-69
2023/01/24 05:07:29;;;;;;;20.45;11.48;;;;;;;;;;5034290;28;20488;-70
2023/01/24 05:09:55;;;;;;;34.63;11.73;;;;;;;;;;5034533;28;20129;-71
2023/01/24 05:12:20;;;;;;;23.15;11.70;;;;;;;;;;5034290;28;20017;-71
2023/01/24 05:14:46;;;;;;;29.20;11.02;;;;;;;;;;5016349;28;20104;-71
2023/01/24 05:17:11;;;;;;;19.38;10.25;;;;;;;;;;5034391;28;20504;-71
2023/01/24 05:19:37;;;;;;;18.42;10.18;;;;;;;;;;5033897;28;20033;-71
2023/01/24 05:22:02;;;;;;;22.55;11.13;;;;;;;;;;5034173;28;20040;-70
2023/01/24 05:24:27;;;;;;;23.75;11.07;;;;;;;;;;5034191;28;20425;-71
2023/01/24 05:26:53;;;;;;;25.13;11.75;;;;;;;;;;5034039;28;20080;-71
2023/01/24 05:29:18;;;;;;;26.00;12.45;;;;;;;;;;5033971;28;20022;-71
2023/01/24 05:31:44;;;;;;;23.17;12.65;;;;;;;;;;5033999;28;20076;-70
2023/01/24 05:34:09;;;;;;;28.02;13.32;;;;;;;;;;5034057;28;20026;-71
2023/01/24 05:36:34;;;;;;;23.98;12.23;;;;;;;;;;5034071;28;20025;-71
2023/01/24 05:39:00;;;;;;;26.25;12.80;;;;;;;;;;5033922;28;20389;-71
2023/01/24 05:41:26;;;;;;;25.60;11.80;;;;;;;;;;5033751;28;20025;-71
2023/01/24 05:43:51;;;;;;;25.58;11.50;;;;;;;;;;5033440;28;20427;-70
2023/01/24 05:46:19;;;;;;;25.08;11.35;;;;;;;;;;5033472;28;20025;-69
2023/01/24 05:48:46;;;;;;;21.13;11.48;;;;;;;;;;5033246;28;20030;-71
2023/01/24 05:51:14;;;;;;;25.13;12.23;;;;;;;;;;5033677;28;20541;-71
2023/01/24 05:53:41;;;;;;;28.95;13.57;;;;;;;;;;5033559;28;20029;-70
2023/01/24 05:56:13;;;;;;;26.25;13.43;;;;;;;;;;5033616;28;20513;-70
2023/01/24 05:58:39;;;;;;;30.65;14.50;;;;;;;;;;5033398;28;20039;-70
2023/01/24 06:01:20;;;;;;;33.53;13.65;;;;;;;;;;5033518;28;20025;-71
2023/01/24 06:03:48;;;;;;;24.23;12.88;;;;;;;;;;5015121;28;20046;-69
2023/01/24 06:06:15;;;;;;;23.88;12.38;;;;;;;;;;5033271;28;20500;-69
2023/01/24 06:08:41;;;;;;;26.88;12.00;;;;;;;;;;5033381;28;20424;-70
2023/01/24 06:11:12;;;;;;;24.35;11.30;;;;;;;;;;5033285;28;20048;-69
2023/01/24 06:13:37;;;;;;;;;;;;;;;;;;5033221;28;20033;-71
2023/01/24 06:16:15;;;;;;;23.02;10.88;;;;;;;;;;5033307;28;19913;-71
2023/01/24 06:18:40;;;;;;;24.40;11.25;;;;;;;;;;5033165;28;20029;-70
2023/01/24 06:21:23;;;;;;;29.45;12.13;;;;;;;;;;5033080;28;20626;-69
2023/01/24 06:23:49;;;;;;;29.65;13.82;;;;;;;;;;5032878;28;20052;-70
2023/01/24 06:26:14;;;;;;;37.20;14.68;;;;;;;;;;5032896;28;20057;-70
2023/01/24 06:28:40;;;;;;;44.33;15.18;;;;;;;;;;5032637;28;20056;-68
2023/01/24 06:31:37;;;;;;;41.45;15.57;;;;;;;;;;5032901;28;20026;-70
2023/01/24 06:34:20;;;;;;;37.30;13.73;;;;;;;;;;5032840;28;20046;-69
2023/01/24 06:36:56;;;;;;;25.75;12.63;;;;;;;;;;5032734;28;20087;-68
2023/01/24 06:39:22;;;;;;;30.35;12.98;;;;;;;;;;5032782;28;20033;-69
2023/01/24 06:41:48;;;;;;;21.83;11.15;;;;;;;;;;5032357;28;20124;-69
2023/01/24 06:44:14;;;;;;;31.83;11.93;;;;;;;;;;5032666;28;20037;-70
2023/01/24 06:46:39;;;;;;;26.73;11.63;;;;;;;;;;5032488;28;20058;-70
2023/01/24 06:49:05;;;;;;;28.02;12.25;;;;;;;;;;5032573;28;20033;-68
2023/01/24 06:51:30;;;;;;;31.77;11.77;;;;;;;;;;5032569;28;20512;-69
2023/01/24 06:53:56;;;;;;;27.42;11.18;;;;;;;;;;5032602;28;20029;-68
2023/01/24 06:56:21;;;;;;;35.03;12.93;;;;;;;;;;5032262;28;20030;-70
2023/01/24 06:58:47;;;;;;;33.90;12.50;;;;;;;;;;5032342;28;20022;-68
2023/01/24 07:01:12;;;;;;;43.25;12.85;;;;;;;;;;5032544;28;20143;-70
2023/01/24 07:03:38;;;;;;;34.88;12.95;;;;;;;;;;5031929;28;20044;-69
2023/01/24 07:06:04;;;;;;;32.05;13.35;;;;;;;;;;5032409;28;20052;-71
2023/01/24 07:08:29;;;;;;;94.53;23.20;;;;;;;;;;5032346;28;20112;-70
2023/01/24 07:10:58;;;;;;;84.68;24.20;;;;;;;;;;5031855;28;20098;-70
2023/01/24 07:13:23;;;;;;;76.07;22.20;;;;;;;;;;5032295;28;20021;-71
2023/01/24 07:15:49;;;;;;;73.22;20.67;;;;;;;;;;5032304;28;20378;-71
2023/01/24 07:18:16;;;;;;;64.72;20.58;;;;;;;;;;5032308;28;20033;-69
2023/01/24 07:20:42;;;;;;;70.60;20.77;;;;;;;;;;5032318;28;20026;-70
2023/01/24 07:23:19;;;;;;;85.45;20.70;;;;;;;;;;5032286;28;20087;-69
2023/01/24 07:25:45;;;;;;;71.30;20.40;;;;;;;;;;5031859;28;20048;-70
2023/01/24 07:28:10;;;;;;;67.07;18.77;;;;;;;;;;5032173;28;20025;-70
2023/01/24 07:30:36;;;;;;;65.50;19.63;;;;;;;;;;5032227;28;20049;-70
2023/01/24 07:33:01;;;;;;;78.68;21.42;;;;;;;;;;5032016;28;20101;-70
2023/01/24 07:35:27;;;;;;;77.97;20.50;;;;;;;;;;5032154;28;20025;-69
2023/01/24 07:37:54;;;;;;;75.22;19.48;;;;;;;;;;5032233;28;20034;-70
2023/01/24 07:40:19;;;;;;;68.63;20.15;;;;;;;;;;5031956;28;20040;-70
2023/01/24 07:42:45;;;;;;;90.53;23.83;;;;;;;;;;5032237;28;20030;-69
2023/01/24 07:45:10;;;;;;;103.15;28.00;;;;;;;;;;5032113;28;20032;-70
2023/01/24 07:47:36;;;;;;;86.78;24.23;;;;;;;;;;5031706;28;20465;-70
2023/01/24 07:50:01;;;;;;;77.13;20.30;;;;;;;;;;5032128;28;20034;-70
2023/01/24 07:52:26;;;;;;;72.78;19.02;;;;;;;;;;5032057;28;20060;-69
2023/01/24 07:54:52;;;;;;;79.30;22.38;;;;;;;;;;5031737;28;20028;-69
2023/01/24 07:57:17;;;;;;;75.90;22.20;;;;;;;;;;5032045;28;20075;-69
2023/01/24 07:59:43;;;;;;;80.65;23.77;;;;;;;;;;5031939;28;20025;-69
2023/01/24 08:02:11;;;;;;;79.38;21.88;;;;;;;;;;5031869;28;20497;-68
2023/01/24 08:04:38;;;;;;;85.88;22.77;;;;;;;;;;5028436;28;20050;-69
2023/01/24 08:07:18;;;;;;;75.38;20.90;;;;;;;;;;5031908;28;20040;-70
2023/01/24 08:09:45;;;;;;;81.50;23.02;;;;;;;;;;5031601;28;20033;-70
2023/01/24 08:12:11;;;;;;;82.82;20.50;;;;;;;;;;5035545;28;20029;-69
2023/01/24 08:14:36;;;;;;;70.72;20.20;;;;;;;;;;5035525;28;20036;-70
2023/01/24 08:17:02;;;;;;;116.53;29.02;;;;;;;;;;5035499;28;20021;-70
2023/01/24 08:19:27;;;;;;;71.55;22.92;;;;;;;;;;5035543;28;20037;-70
2023/01/24 08:21:53;;;;;;;75.88;21.83;;;;;;;;;;5035479;28;20018;-70
2023/01/24 08:24:18;;;;;;;70.03;18.88;;;;;;;;;;5035065;28;20492;-72
2023/01/24 08:26:46;;;;;;;71.28;21.88;;;;;;;;;;5035107;28;20024;-70
2023/01/24 08:29:12;;;;;;;90.63;21.02;;;;;;;;;;5035261;28;20041;-70
2023/01/24 08:31:37;;;;;;;68.72;19.40;;;;;;;;;;5035099;28;20048;-70
2023/01/24 08:34:03;;;;;;;67.35;20.83;;;;;;;;;;5035259;28;20526;-71
2023/01/24 08:36:28;;;;;;;74.13;18.65;;;;;;;;;;5035225;28;20508;-70
2023/01/24 08:38:53;;;;;;;136.63;39.60;;;;;;;;;;5034763;28;20025;-70
2023/01/24 08:41:19;;;;;;;110.15;34.03;;;;;;;;;;5035086;28;20021;-71
2023/01/24 08:43:44;;;;;;;80.97;21.23;;;;;;;;;;5034989;28;20470;-71
2023/01/24 08:46:09;;;;;;;62.45;20.33;;;;;;;;;;5033376;28;20040;-71
2023/01/24 08:48:35;;;;;;;80.30;21.25;;;;;;;;;;5034643;28;20041;-71
2023/01/24 08:51:04;;;;;;;65.10;20.42;;;;;;;;;;5034886;28;20022;-71
2023/01/24 08:53:30;;;;;;;62.27;18.37;;;;;;;;;;5034710;28;20482;-71
2023/01/24 08:55:55;;;;;;;92.38;32.28;;;;;;;;;;5034894;28;20301;-70
2023/01/24 08:58:21;;;;;;;63.88;21.90;;;;;;;;;;5034844;28;20402;-69
2023/01/24 09:00:47;;;;;;;49.45;17.70;;;;;;;;;;5034743;28;20032;-71
2023/01/24 09:03:16;;;;;;;59.67;17.08;;;;;;;;;;5034206;28;20033;-71
2023/01/24 09:05:42;;;;;;;45.97;14.55;;;;;;;;;;5034470;28;20489;-70
2023/01/24 09:08:08;;;;;;;52.40;17.08;;;;;;;;;;5034424;28;20033;-71
2023/01/24 09:10:33;;;;;;;57.35;16.58;;;;;;;;;;5016846;28;20112;-70
2023/01/24 09:13:00;;;;;;;45.35;14.75;;;;;;;;;;5034502;28;20025;-70
2023/01/24 09:15:25;;;;;;;44.88;15.32;;;;;;;;;;5034481;28;20029;-70
2023/01/24 09:17:51;;;;;;;57.33;17.42;;;;;;;;;;5034178;28;20033;-70
2023/01/24 09:20:16;;;;;;;101.75;37.50;;;;;;;;;;5034489;28;20389;-69
2023/01/24 09:22:42;;;;;;;63.95;20.52;;;;;;;;;;5032784;28;20040;-70
2023/01/24 09:25:08;;;;;;;53.88;17.10;;;;;;;;;;5034309;28;20025;-72
2023/01/24 09:27:34;;;;;;;57.72;16.95;;;;;;;;;;5033677;28;20051;-71
2023/01/24 09:30:00;;;;;;;63.70;18.02;;;;;;;;;;5034159;28;20104;-70
2023/01/24 09:32:25;;;;;;;61.00;17.85;;;;;;;;;;5034198;28;20064;-72
2023/01/24 09:34:51;;;;;;;48.75;14.82;;;;;;;;;;5033998;28;20462;-70
2023/01/24 09:37:20;;;;;;;44.63;15.38;;;;;;;;;;5033802;28;20036;-70
2023/01/24 09:39:45;;;;;;;57.00;23.55;;;;;;;;;;5033864;28;20112;-71
2023/01/24 09:42:40;;;;;;;51.88;15.77;;;;;;;;;;5034156;28;20121;-71
2023/01/24 09:45:18;;;;;;;47.40;15.15;;;;;;;;;;5016151;28;20420;-71
2023/01/24 09:47:50;;;;;;;51.92;16.48;;;;;;;;;;5032509;28;20030;-72
2023/01/24 09:50:25;;;;;;;68.53;17.40;;;;;;;;;;5033549;28;20021;-71
2023/01/24 09:52:56;;;;;;;67.60;18.65;;;;;;;;;;5033733;28;20095;-71
2023/01/24 09:55:30;;;;;;;72.57;22.58;;;;;;;;;;5033767;28;20091;-71
2023/01/24 09:58:04;;;;;;;79.40;21.25;;;;;;;;;;5033563;28;20468;-71
2023/01/24 10:00:36;;;;;;;91.70;22.75;;;;;;;;;;5033038;28;20038;-72
2023/01/24 10:03:03;;;;;;;115.20;27.10;;;;;;;;;;5033392;28;20449;-71
2023/01/24 10:05:39;;;;;;;114.35;28.05;;;;;;;;;;5033077;28;20091;-71
2023/01/24 10:08:42;;;;;;;127.38;27.02;;;;;;;;;;5033573;28;20033;-71
2023/01/24 10:11:32;;;;;;;109.82;27.10;;;;;;;;;;5033359;28;20030;-71
2023/01/24 10:14:16;;;;;;;128.88;25.55;;;;;;;;;;5033517;28;20039;-71
2023/01/24 10:17:07;;;;;;;136.57;30.80;;;;;;;;;;5033350;28;20497;-71
2023/01/24 10:19:45;;;;;;;143.55;30.95;;;;;;;;;;5033103;28;20103;-72
2023/01/24 10:22:43;;;;;;;126.55;28.50;;;;;;;;;;5033184;28;20101;-70
2023/01/24 10:25:24;;;;;;;130.57;29.50;;;;;;;;;;5033232;28;20025;-69
2023/01/24 10:27:51;;;;;;;;;;;;;;;;;;5033365;28;20509;-70
2023/01/24 10:30:22;;;;;;;182.20;42.85;;;;;;;;;;5032615;28;20004;-72
2023/01/24 10:32:52;;;;;;;248.35;57.10;;;;;;;;;;5032599;28;20033;-69
2023/01/24 10:35:25;;;;;;;129.32;29.33;;;;;;;;;;5033021;28;20032;-68
2023/01/24 10:37:55;;;;;;;86.68;23.38;;;;;;;;;;5032989;28;20040;-70
2023/01/24 10:40:21;;;;;;;;;;;;;;;;;;5033462;28;20071;-70
2023/01/24 10:42:47;;;;;;;79.57;21.38;;;;;;;;;;5032894;28;20002;-71
2023/01/24 10:45:34;;;;;;;60.25;17.65;;;;;;;;;;5032803;28;20049;-70
2023/01/24 10:48:36;;;;;;;78.20;19.10;;;;;;;;;;5032572;28;20433;-69
2023/01/24 10:51:13;;;;;;;58.80;17.13;;;;;;;;;;5032576;28;20026;-69
2023/01/24 10:53:39;;;;;;;75.90;18.35;;;;;;;;;;5032547;28;20025;-69
2023/01/24 10:56:05;;;;;;;56.45;17.65;;;;;;;;;;5032725;28;20023;-70
2023/01/24 10:59:11;;;;;;;46.83;16.23;;;;;;;;;;5032754;28;20033;-68
2023/01/24 11:01:45;;;;;;;57.65;17.45;;;;;;;;;;5022753;28;20087;-70
2023/01/24 11:04:19;;;;;;;44.80;15.30;;;;;;;;;;5033279;28;20046;-70
2023/01/24 11:06:47;;;;;;;52.03;16.38;;;;;;;;;;5032068;28;20055;-69
2023/01/24 11:09:16;;;;;;;43.40;13.40;;;;;;;;;;5032292;28;20029;-69
2023/01/24 11:11:53;;;;;;;36.88;12.45;;;;;;;;;;5032340;28;20025;-69
2023/01/24 11:14:31;;;;;;;38.20;13.23;;;;;;;;;;5032424;28;20037;-69
2023/01/24 11:16:59;;;;;;;39.83;14.63;;;;;;;;;;5031486;28;20033;-70
2023/01/24 11:19:28;;;;;;;45.92;14.38;;;;;;;;;;5031905;28;20052;-70
2023/01/24 11:21:56;;;;;;;41.95;13.35;;;;;;;;;;5031792;28;20107;-69
2023/01/24 11:24:22;;;;;;;44.47;16.20;;;;;;;;;;5032428;28;20504;-70
2023/01/24 11:27:13;;;;;;;46.65;16.08;;;;;;;;;;5031952;28;20367;-70
2023/01/24 11:29:39;;;;;;;39.63;14.13;;;;;;;;;;5031780;28;20421;-70
2023/01/24 11:32:30;;;;;;;48.63;15.32;;;;;;;;;;5032191;28;20029;-70
2023/01/24 11:35:11;;;;;;;40.30;13.15;;;;;;;;;;5032334;28;20126;-70
2023/01/24 11:37:59;;;;;;;47.28;13.70;;;;;;;;;;5032305;28;20025;-70
2023/01/24 11:41:02;;;;;;;41.72;12.75;;;;;;;;;;5032227;28;20052;-69
2023/01/24 11:44:06;;;;;;;44.53;13.27;;;;;;;;;;5032161;28;20030;-69
2023/01/24 11:46:43;;;;;;;35.30;11.82;;;;;;;;;;5034842;28;20033;-69
2023/01/24 11:49:21;;;;;;;53.65;17.13;;;;;;;;;;5036009;28;20503;-69
2023/01/24 11:52:16;;;;;;;34.95;12.05;;;;;;;;;;5036037;28;20029;-70
2023/01/24 11:55:15;;;;;;;33.05;11.55;;;;;;;;;;5035986;28;20432;-70
2023/01/24 11:57:56;;;;;;;33.10;12.63;;;;;;;;;;5035942;28;20108;-70
2023/01/24 12:00:32;;;;;;;30.65;12.15;;;;;;;;;;5035741;28;20085;-70
2023/01/24 12:03:21;;;;;;;54.42;18.25;;;;;;;;;;5035658;28;20508;-69
2023/01/24 12:06:02;;;;;;;30.60;11.73;;;;;;;;;;5015930;28;20069;-70
2023/01/24 12:08:52;;;;;;;40.63;14.40;;;;;;;;;;5015867;28;20030;-70
2023/01/24 12:11:29;;;;;;;70.07;21.13;;;;;;;;;;5015955;28;20036;-69
2023/01/24 12:14:28;;;;;;;45.20;18.30;;;;;;;;;;5015769;28;20026;-71
2023/01/24 12:17:26;;;;;;;39.70;14.57;;;;;;;;;;5015357;28;20033;-70
2023/01/24 12:20:02;;;;;;;36.42;14.50;;;;;;;;;;5015776;28;20103;-69
2023/01/24 12:22:29;;;;;;;49.90;17.42;;;;;;;;;;5015493;28;20120;-70
2023/01/24 12:25:15;;;;;;;49.67;18.25;;;;;;;;;;5015417;28;20029;-68
2023/01/24 12:27:42;;;;;;;33.78;11.77;;;;;;;;;;5014107;28;20034;-69
2023/01/24 12:30:13;;;;;;;31.67;11.73;;;;;;;;;;5015636;28;20445;-69
2023/01/24 12:32:39;;;;;;;123.70;34.88;;;;;;;;;;5015397;28;20026;-69
2023/01/24 12:35:04;;;;;;;48.50;18.55;;;;;;;;;;5015522;28;20052;-69
2023/01/24 12:37:29;;;;;;;36.53;12.77;;;;;;;;;;5015370;28;20030;-70
2023/01/24 12:40:13;;;;;;;39.70;17.42;;;;;;;;;;5015302;28;20033;-69
2023/01/24 12:42:57;;;;;;;35.63;13.98;;;;;;;;;;5015310;28;20021;-69
2023/01/24 12:45:30;;;;;;;29.30;14.68;;;;;;;;;;5015120;28;20030;-68
2023/01/24 12:48:08;;;;;;;29.17;12.15;;;;;;;;;;5015242;28;20048;-70
2023/01/24 12:51:06;;;;;;;32.55;11.90;;;;;;;;;;5015164;28;20026;-69
2023/01/24 12:53:41;;;;;;;80.82;27.05;;;;;;;;;;5015130;28;20032;-69
2023/01/24 12:56:59;;;;;;;25.90;10.43;;;;;;;;;;5014791;28;20107;-68
2023/01/24 12:59:28;;;;;;;181.05;41.60;;;;;;;;;;4954131;29;20039;-69
2023/01/24 13:02:17;;;;;;;349.42;80.05;;;;;;;;;;4953910;29;20047;-69
2023/01/24 13:04:57;;;;;;;130.07;33.70;;;;;;;;;;4967917;28;20067;-69
2023/01/24 13:07:47;;;;;;;57.45;18.27;;;;;;;;;;4973668;28;20063;-69
2023/01/24 13:10:38;;;;;;;47.47;18.42;;;;;;;;;;4973570;28;20031;-69
2023/01/24 13:13:08;;;;;;;23.95;11.00;;;;;;;;;;4957382;28;20038;-68
2023/01/24 13:15:40;;;;;;;34.22;14.80;;;;;;;;;;4973462;28;20041;-68
2023/01/24 13:18:18;;;;;;;26.30;11.93;;;;;;;;;;4973204;28;20041;-69
2023/01/24 13:21:22;;;;;;;33.55;12.23;;;;;;;;;;4973344;28;20031;-69
2023/01/24 13:24:13;;;;;;;25.48;11.98;;;;;;;;;;4959034;28;20137;-69
2023/01/24 13:27:00;;;;;;;34.00;13.23;;;;;;;;;;4973235;28;20027;-69
2023/01/24 13:29:35;;;;;;;24.15;10.52;;;;;;;;;;4972977;28;20408;-68
2023/01/24 13:32:06;;;;;;;30.55;12.27;;;;;;;;;;4973299;28;20027;-69
2023/01/24 13:34:39;;;;;;;29.38;9.70;;;;;;;;;;4991048;28;20046;-69
2023/01/24 13:37:06;;;;;;;23.05;9.65;;;;;;;;;;5014375;28;20025;-69
2023/01/24 13:39:42;;;;;;;36.92;11.52;;;;;;;;;;5014393;28;20382;-69
2023/01/24 13:42:31;;;;;;;23.90;9.77;;;;;;;;;;5013773;28;20486;-68
2023/01/24 13:44:56;;;;;;;28.23;10.95;;;;;;;;;;5014148;28;20041;-68
2023/01/24 13:47:24;;;;;;;26.95;11.43;;;;;;;;;;5011960;28;20379;-69
2023/01/24 13:49:49;;;;;;;23.00;10.68;;;;;;;;;;5013301;28;20071;-69
2023/01/24 13:52:33;;;;;;;32.78;13.00;;;;;;;;;;5013660;28;20022;-69
2023/01/24 13:55:00;;;;;;;35.88;12.35;;;;;;;;;;5013375;28;20057;-69
2023/01/24 13:57:27;;;;;;;22.25;10.07;;;;;;;;;;5013411;28;20280;-69
2023/01/24 14:00:17;;;;;;;39.38;10.63;;;;;;;;;;5013404;28;20042;-69
2023/01/24 14:02:48;;;;;;;18.60;9.07;;;;;;;;;;5013299;28;20478;-68
2023/01/24 14:05:28;;;;;;;25.23;9.50;;;;;;;;;;5048104;28;20100;-69
2023/01/24 14:07:59;;;;;;;;;;;;;;;;;;5051067;28;20021;-68
2023/01/24 14:10:37;;;;;;;27.38;9.80;;;;;;;;;;5051303;28;20004;-69
2023/01/24 14:13:04;;;;;;;25.48;11.90;;;;;;;;;;5051387;28;20121;-69
2023/01/24 14:15:41;;;;;;;23.05;11.00;;;;;;;;;;5051202;28;20025;-69
2023/01/24 14:18:43;;;;;;;29.27;10.25;;;;;;;;;;5051672;28;20036;-69
2023/01/24 14:21:20;;;;;;;23.35;10.13;;;;;;;;;;5053170;28;20075;-69
2023/01/24 14:23:57;;;;;;;54.03;23.33;;;;;;;;;;5052996;28;20021;-69
2023/01/24 14:26:27;;;;;;;47.67;18.20;;;;;;;;;;5052684;28;20029;-67
2023/01/24 14:28:55;;;;;;;71.10;26.15;;;;;;;;;;5052991;28;20044;-68
2023/01/24 14:31:23;;;;;;;52.42;19.48;;;;;;;;;;5053068;28;20053;-68
2023/01/24 14:33:57;;;;;;;36.22;14.00;;;;;;;;;;5052751;28;20527;-68
2023/01/24 14:36:30;;;;;;;30.02;13.30;;;;;;;;;;5052964;28;20021;-68
2023/01/24 14:39:16;;;;;;;26.52;11.60;;;;;;;;;;5052654;28;20032;-67
2023/01/24 14:41:42;;;;;;;34.78;10.43;;;;;;;;;;5052422;28;20028;-69
2023/01/24 14:44:26;;;;;;;24.30;9.68;;;;;;;;;;5052871;28;20420;-68
2023/01/24 14:46:58;;;;;;;24.98;11.10;;;;;;;;;;5052646;28;20033;-69
2023/01/24 14:49:25;;;;;;;31.38;12.52;;;;;;;;;;5052711;28;20028;-69
2023/01/24 14:51:51;;;;;;;29.30;13.27;;;;;;;;;;5052557;28;20025;-70
2023/01/24 14:54:22;;;;;;;36.92;15.35;;;;;;;;;;5052394;28;20036;-70
2023/01/24 14:56:47;;;;;;;228.60;48.92;;;;;;;;;;5052582;28;20413;-70
2023/01/24 14:59:14;;;;;;;93.10;24.38;;;;;;;;;;5052416;28;20025;-71
2023/01/24 15:01:40;;;;;;;59.10;19.05;;;;;;;;;;5052214;28;20021;-70
2023/01/24 15:04:29;;;;;;;30.02;11.10;;;;;;;;;;5052129;28;20049;-70
2023/01/24 15:07:04;;;;;;;27.73;11.43;;;;;;;;;;5052372;28;20432;-70
2023/01/24 15:09:30;;;;;;;56.85;18.98;;;;;;;;;;5052210;28;20029;-70
2023/01/24 15:11:56;;;;;;;59.78;19.77;;;;;;;;;;5052360;28;20043;-70
2023/01/24 15:14:22;;;;;;;124.15;34.65;;;;;;;;;;5052400;28;20025;-69
2023/01/24 15:16:52;;;;;;;34.50;15.57;;;;;;;;;;5051950;28;20033;-70
2023/01/24 15:19:24;;;;;;;85.83;26.83;;;;;;;;;;5053165;28;20112;-68